createdAt,value
2023-04-14T00:00:36.931Z,100710.00
2023-04-14T00:03:09.939Z,100711.97
2023-04-14T00:05:42.940Z,100715.44
2023-04-14T00:08:15.630Z,100710.34
2023-04-14T00:10:48.373Z,100715.59
2023-04-14T00:13:22.527Z,100720.66
2023-04-14T00:15:56.124Z,100721.59
2023-04-14T00:18:28.736Z,100718.50
2023-04-14T00:21:02.419Z,100722.34
2023-04-14T00:23:35.286Z,100715.91
2023-04-14T00:26:08.550Z,100719.97
2023-04-14T00:28:43.446Z,100722.69
2023-04-14T00:31:16.198Z,100721.06
2023-04-14T00:33:48.899Z,100715.59
2023-04-14T00:36:21.776Z,100716.75
2023-04-14T00:38:54.439Z,100715.13
2023-04-14T00:41:27.200Z,100712.63
2023-04-14T00:44:02.818Z,100720.97
2023-04-14T00:46:36.332Z,100715.78
2023-04-14T00:49:09.482Z,100717.69
2023-04-14T00:51:42.585Z,100722.84
2023-04-14T00:54:18.098Z,100721.88
2023-04-14T00:56:52.502Z,100724.63
2023-04-14T00:59:28.704Z,100730.03
2023-04-14T01:02:01.990Z,100725.72
2023-04-14T01:04:52.013Z,100738.06
2023-04-14T01:07:29.155Z,100739.78
2023-04-14T01:10:01.990Z,100737.41
2023-04-14T01:12:50.842Z,100740.81
2023-04-14T01:15:29.983Z,100734.97
2023-04-14T01:18:08.921Z,100738.34
2023-04-14T01:20:43.263Z,100734.03
2023-04-14T01:23:22.662Z,100738.78
2023-04-14T01:26:29.847Z,100732.09
2023-04-14T01:29:21.125Z,100733.31
2023-04-14T01:32:03.168Z,100735.06
2023-04-14T01:34:39.483Z,100732.34
2023-04-14T01:37:16.614Z,100734.03
2023-04-14T01:39:53.249Z,100728.44
2023-04-14T01:42:32.689Z,100730.75
2023-04-14T01:45:15.477Z,100729.97
2023-04-14T01:47:52.820Z,100726.88
2023-04-14T01:50:28.062Z,100722.09
2023-04-14T01:53:04.353Z,100723.72
2023-04-14T01:55:39.635Z,100723.59
2023-04-14T01:58:16.510Z,100725.66
2023-04-14T02:00:50.638Z,100725.59
2023-04-14T02:03:26.643Z,100722.72
2023-04-14T02:06:00.569Z,100731.22
2023-04-14T02:08:34.728Z,100728.97
2023-04-14T02:11:09.874Z,100736.81
2023-04-14T02:13:44.192Z,100730.50
2023-04-14T02:16:18.546Z,100733.94
2023-04-14T02:18:54.488Z,100729.88
2023-04-14T02:21:28.656Z,100734.25
2023-04-14T02:24:01.360Z,100731.81
2023-04-14T02:26:38.949Z,100737.28
2023-04-14T02:29:14.800Z,100738.84
2023-04-14T02:31:53.794Z,100737.69
2023-04-14T02:34:31.412Z,100730.22
2023-04-14T02:37:10.451Z,100739.59
2023-04-14T02:39:46.125Z,100732.97
2023-04-14T02:42:21.942Z,100734.91
2023-04-14T02:45:01.608Z,100730.13
2023-04-14T02:47:38.415Z,100735.91
2023-04-14T02:50:15.386Z,100735.16
2023-04-14T02:52:55.829Z,100737.09
2023-04-14T02:55:33.592Z,100742.53
2023-04-14T02:58:06.712Z,100741.69
2023-04-14T03:00:44.152Z,100745.91
2023-04-14T03:03:18.721Z,100742.84
2023-04-14T03:05:53.985Z,100751.00
2023-04-14T03:08:28.156Z,100746.75
2023-04-14T03:11:03.331Z,100740.84
2023-04-14T03:13:38.853Z,100745.44
2023-04-14T03:16:14.463Z,100740.72
2023-04-14T03:18:49.045Z,100741.59
2023-04-14T03:21:25.196Z,100741.09
2023-04-14T03:23:59.812Z,100752.38
2023-04-14T03:26:36.859Z,100745.25
2023-04-14T03:29:11.598Z,100746.19
2023-04-14T03:31:45.213Z,100755.53
2023-04-14T03:34:18.927Z,100747.34
2023-04-14T03:36:59.359Z,100751.88
2023-04-14T03:39:34.543Z,100748.34
2023-04-14T03:42:09.016Z,100747.63
2023-04-14T03:44:49.909Z,100752.22
2023-04-14T03:47:23.678Z,100749.03
2023-04-14T03:49:59.783Z,100759.19
2023-04-14T03:52:36.442Z,100748.91
2023-04-14T03:55:12.549Z,100748.91
2023-04-14T03:57:48.261Z,100751.34
2023-04-14T04:00:21.845Z,100752.09
2023-04-14T04:02:56.501Z,100748.19
2023-04-14T04:05:30.486Z,100752.78
2023-04-14T04:08:06.612Z,100751.72
2023-04-14T04:10:40.453Z,100750.31
2023-04-14T04:13:17.043Z,100751.56
2023-04-14T04:15:52.552Z,100744.16
2023-04-14T04:18:28.914Z,100750.41
2023-04-14T04:21:03.746Z,100738.53
2023-04-14T04:23:42.156Z,100746.38
2023-04-14T04:26:16.907Z,100741.78
2023-04-14T04:28:50.257Z,100751.84
2023-04-14T04:31:24.762Z,100750.31
2023-04-14T04:33:58.419Z,100754.22
2023-04-14T04:36:32.964Z,100755.09
2023-04-14T04:39:07.279Z,100754.94
2023-04-14T04:41:45.797Z,100758.97
2023-04-14T04:44:19.025Z,100759.03
2023-04-14T04:46:53.441Z,100755.09
2023-04-14T04:49:30.344Z,100758.19
2023-04-14T04:52:08.224Z,100749.31
2023-04-14T04:54:42.302Z,100761.75
2023-04-14T04:57:15.006Z,100760.66
2023-04-14T04:59:47.810Z,100758.66
2023-04-14T05:02:20.905Z,100760.66
2023-04-14T05:04:53.804Z,100760.09
2023-04-14T05:07:26.652Z,100762.09
2023-04-14T05:10:00.726Z,100766.34
2023-04-14T05:12:33.383Z,100771.16
2023-04-14T05:15:08.440Z,100773.47
2023-04-14T05:17:41.454Z,100774.09
2023-04-14T05:20:14.064Z,100774.16
2023-04-14T05:22:46.884Z,100777.19
2023-04-14T05:25:21.412Z,100774.91
2023-04-14T05:27:54.165Z,100773.75
2023-04-14T05:30:27.457Z,100768.28
2023-04-14T05:33:00.398Z,100779.16
2023-04-14T05:35:33.142Z,100776.06
2023-04-14T05:38:05.953Z,100780.72
2023-04-14T05:40:41.000Z,100778.41
2023-04-14T05:43:14.303Z,100780.34
2023-04-14T05:45:47.288Z,100789.41
2023-04-14T05:48:20.349Z,100794.03
2023-04-14T05:50:53.379Z,100787.03
2023-04-14T05:53:26.286Z,100787.94
2023-04-14T05:56:00.675Z,100796.13
2023-04-14T05:58:33.473Z,100801.13
2023-04-14T06:01:06.325Z,100793.38
2023-04-14T06:03:40.576Z,100796.13
2023-04-14T06:06:13.730Z,100792.88
2023-04-14T06:08:46.542Z,100798.06
2023-04-14T06:11:20.775Z,100791.88
2023-04-14T06:13:53.768Z,100796.19
2023-04-14T06:16:26.504Z,100796.50
2023-04-14T06:18:59.652Z,100793.19
2023-04-14T06:21:32.782Z,100794.69
2023-04-14T06:24:06.172Z,100790.47
2023-04-14T06:26:40.250Z,100792.75
2023-04-14T06:29:13.291Z,100787.75
2023-04-14T06:31:46.242Z,100782.41
2023-04-14T06:34:19.173Z,100781.06
2023-04-14T06:36:53.076Z,100776.84
2023-04-14T06:39:27.285Z,100779.75
2023-04-14T06:42:01.548Z,100783.13
2023-04-14T06:44:35.351Z,100789.47
2023-04-14T06:47:09.070Z,100778.69
2023-04-14T06:49:41.771Z,100774.44
2023-04-14T06:52:14.489Z,100775.38
2023-04-14T06:54:47.226Z,100775.59
2023-04-14T06:57:21.466Z,100773.53
2023-04-14T06:59:54.558Z,100780.19
2023-04-14T07:02:28.606Z,100779.88
2023-04-14T07:05:01.808Z,100779.97
2023-04-14T07:07:36.149Z,100774.09
2023-04-14T07:10:09.769Z,100776.25
2023-04-14T07:12:43.872Z,100772.41
2023-04-14T07:15:17.294Z,100778.81
2023-04-14T07:17:50.095Z,100773.84
2023-04-14T07:20:22.983Z,100775.25
2023-04-14T07:22:56.449Z,100774.53
2023-04-14T07:25:29.246Z,100769.19
2023-04-14T07:28:04.215Z,100763.66
2023-04-14T07:30:37.152Z,100767.38
2023-04-14T07:33:10.017Z,100771.53
2023-04-14T07:35:54.389Z,100767.13
2023-04-14T07:38:33.978Z,100766.72
2023-04-14T07:41:07.605Z,100769.53
2023-04-14T07:43:41.872Z,100765.66
2023-04-14T07:46:15.049Z,100769.41
2023-04-14T07:48:47.872Z,100761.63
2023-04-14T07:51:21.019Z,100768.91
2023-04-14T07:53:56.771Z,100761.94
2023-04-14T07:56:29.525Z,100760.63
2023-04-14T07:59:03.818Z,100759.94
2023-04-14T08:01:36.606Z,100763.94
2023-04-14T08:04:09.408Z,100755.53
2023-04-14T08:06:42.722Z,100748.53
2023-04-14T08:09:16.022Z,100755.66
2023-04-14T08:11:48.884Z,100757.66
2023-04-14T08:14:22.957Z,100759.22
2023-04-14T08:16:55.808Z,100755.22
2023-04-14T08:19:28.452Z,100751.63
2023-04-14T08:22:01.337Z,100753.00
2023-04-14T08:24:36.017Z,100749.34
2023-04-14T08:27:10.585Z,100755.28
2023-04-14T08:29:44.535Z,100754.19
2023-04-14T08:32:17.251Z,100752.41
2023-04-14T08:35:38.167Z,100750.13
2023-04-14T08:37:42.783Z,100749.78
2023-04-14T08:40:18.881Z,100756.97
2023-04-14T08:42:51.658Z,100755.03
2023-04-14T08:45:26.782Z,100749.34
2023-04-14T08:48:02.385Z,100743.19
2023-04-14T08:50:47.557Z,100749.75
2023-04-14T08:53:23.891Z,100746.16
2023-04-14T08:55:58.561Z,100746.19
2023-04-14T08:58:32.345Z,100754.16
2023-04-14T09:01:07.515Z,100742.91
2023-04-14T09:03:41.283Z,100745.44
2023-04-14T09:06:15.106Z,100741.41
2023-04-14T09:08:48.031Z,100750.47
2023-04-14T09:11:20.762Z,100741.31
2023-04-14T09:13:54.951Z,100741.38
2023-04-14T09:16:29.863Z,100752.03
2023-04-14T09:19:06.930Z,100746.91
2023-04-14T09:21:52.308Z,100750.84
2023-04-14T09:24:32.488Z,100752.13
2023-04-14T09:27:06.822Z,100748.94
2023-04-14T09:29:39.966Z,100740.31
2023-04-14T09:32:14.060Z,100741.44
2023-04-14T09:34:53.897Z,100737.06
2023-04-14T09:37:28.139Z,100735.41
2023-04-14T09:40:00.916Z,100741.63
2023-04-14T09:42:39.569Z,100741.22
2023-04-14T09:45:12.589Z,100738.84
2023-04-14T09:47:46.663Z,100727.69
2023-04-14T09:50:20.004Z,100732.41
2023-04-14T09:52:52.947Z,100731.56
2023-04-14T09:55:26.123Z,100728.72
2023-04-14T09:57:58.878Z,100724.28
2023-04-14T10:00:32.996Z,100718.34
2023-04-14T10:03:07.331Z,100716.53
2023-04-14T10:05:40.104Z,100726.38
2023-04-14T10:08:12.930Z,100719.72
2023-04-14T10:10:45.850Z,100722.00
2023-04-14T10:13:19.340Z,100721.41
2023-04-14T10:15:52.295Z,100713.38
2023-04-14T10:18:26.297Z,100714.81
2023-04-14T10:20:59.792Z,100714.50
2023-04-14T10:23:33.326Z,100713.47
2023-04-14T10:26:07.478Z,100716.09
2023-04-14T10:28:42.075Z,100715.94
2023-04-14T10:31:20.184Z,100716.88
2023-04-14T10:33:55.253Z,100711.78
2023-04-14T10:36:30.748Z,100712.47
2023-04-14T10:39:05.427Z,100716.84
2023-04-14T10:41:47.187Z,100715.31
2023-04-14T10:44:27.482Z,100722.75
2023-04-14T10:47:02.125Z,100721.41
2023-04-14T10:49:38.220Z,100716.59
2023-04-14T10:52:33.445Z,100712.84
2023-04-14T10:55:12.174Z,100717.47
2023-04-14T10:57:47.028Z,100718.41
2023-04-14T11:00:28.256Z,100707.47
2023-04-14T11:03:05.532Z,100706.81
2023-04-14T11:05:43.787Z,100698.16
2023-04-14T11:08:18.161Z,100712.75
2023-04-14T11:10:52.038Z,100711.72
2023-04-14T11:13:24.926Z,100700.84
2023-04-14T11:15:59.256Z,100709.09
2023-04-14T11:18:38.850Z,100694.75
2023-04-14T11:21:15.059Z,100702.75
2023-04-14T11:23:49.145Z,100701.78
2023-04-14T11:26:27.752Z,100696.91
2023-04-14T11:29:09.199Z,100693.53
2023-04-14T11:31:44.140Z,100701.13
2023-04-14T11:34:17.013Z,100704.94
2023-04-14T11:36:51.907Z,100701.03
2023-04-14T11:39:30.486Z,100699.56
2023-04-14T11:42:03.624Z,100697.56
2023-04-14T11:44:36.965Z,100685.59
2023-04-14T11:47:12.260Z,100692.38
2023-04-14T11:49:45.295Z,100688.94
2023-04-14T11:52:21.879Z,100693.91
2023-04-14T11:54:54.785Z,100685.06
2023-04-14T11:57:27.899Z,100689.50
2023-04-14T12:00:01.015Z,100683.63
2023-04-14T12:02:33.854Z,100684.31
2023-04-14T12:05:08.382Z,100691.72
2023-04-14T12:07:45.693Z,100675.50
2023-04-14T12:10:19.508Z,100681.78
2023-04-14T12:13:00.136Z,100687.81
2023-04-14T12:15:36.806Z,100672.47
2023-04-14T12:18:11.711Z,100682.81
2023-04-14T12:20:46.774Z,100670.22
2023-04-14T12:23:21.226Z,100680.41
2023-04-14T12:25:54.489Z,100671.34
2023-04-14T12:28:29.256Z,100674.19
2023-04-14T12:31:04.729Z,100674.88
2023-04-14T12:33:37.812Z,100675.50
2023-04-14T12:36:15.339Z,100672.72
2023-04-14T12:38:50.058Z,100665.09
2023-04-14T12:41:26.538Z,100665.97
2023-04-14T12:43:59.522Z,100657.66
2023-04-14T12:46:32.825Z,100657.06
2023-04-14T12:49:05.951Z,100654.50
2023-04-14T12:51:44.022Z,100658.66
2023-04-14T12:54:21.847Z,100648.72
2023-04-14T12:56:54.582Z,100659.84
2023-04-14T12:59:27.339Z,100655.16
2023-04-14T13:02:00.255Z,100653.19
2023-04-14T13:04:33.102Z,100653.69
2023-04-14T13:07:05.927Z,100652.13
2023-04-14T13:09:40.334Z,100641.47
2023-04-14T13:12:15.564Z,100638.09
2023-04-14T13:14:48.366Z,100627.63
2023-04-14T13:17:21.335Z,100637.81
2023-04-14T13:19:54.214Z,100640.31
2023-04-14T13:22:27.396Z,100631.53
2023-04-14T13:25:02.478Z,100632.69
2023-04-14T13:27:35.389Z,100631.38
2023-04-14T13:30:08.748Z,100630.06
2023-04-14T13:32:41.572Z,100628.09
2023-04-14T13:35:14.201Z,100622.09
2023-04-14T13:37:47.015Z,100619.78
2023-04-14T13:40:21.135Z,100618.63
2023-04-14T13:42:54.112Z,100618.34
2023-04-14T13:45:26.917Z,100610.75
2023-04-14T13:48:01.456Z,100605.94
2023-04-14T13:50:34.366Z,100612.47
2023-04-14T13:53:07.402Z,100604.06
2023-04-14T13:55:42.443Z,100595.41
2023-04-14T13:58:15.362Z,100596.91
2023-04-14T14:00:47.927Z,100597.63
2023-04-14T14:03:20.921Z,100603.56
2023-04-14T14:05:56.434Z,100603.66
2023-04-14T14:08:30.509Z,100594.28
2023-04-14T14:11:05.490Z,100588.63
2023-04-14T14:14:06.649Z,100585.38
2023-04-14T14:16:41.736Z,100582.94
2023-04-14T14:19:17.250Z,100579.81
2023-04-14T14:21:50.120Z,100585.72
2023-04-14T14:24:23.138Z,100581.25
2023-04-14T14:27:00.549Z,100571.09
2023-04-14T14:29:35.174Z,100572.16
2023-04-14T14:32:08.694Z,100568.19
2023-04-14T14:34:41.692Z,100563.13
2023-04-14T14:37:17.497Z,100564.47
2023-04-14T14:39:50.606Z,100568.84
2023-04-14T14:42:25.220Z,100557.41
2023-04-14T14:44:58.311Z,100554.13
2023-04-14T14:47:31.909Z,100554.13
2023-04-14T14:50:08.303Z,100548.78
2023-04-14T14:52:41.439Z,100559.66
2023-04-14T14:55:14.209Z,100559.50
2023-04-14T14:57:48.406Z,100556.97
2023-04-14T15:00:21.791Z,100558.19
2023-04-14T15:02:54.893Z,100554.47
2023-04-14T15:05:28.275Z,100563.06
2023-04-14T15:08:01.133Z,100553.09
2023-04-14T15:10:33.835Z,100553.41
2023-04-14T15:13:08.037Z,100561.50
2023-04-14T15:15:41.335Z,100556.47
2023-04-14T15:18:14.168Z,100556.81
2023-04-14T15:20:47.946Z,100560.97
2023-04-14T15:23:20.740Z,100551.59
2023-04-14T15:25:53.616Z,100561.66
2023-04-14T15:28:28.333Z,100555.41
2023-04-14T15:31:01.248Z,100560.31
2023-04-14T15:33:33.973Z,100558.25
2023-04-14T15:36:07.720Z,100558.59
2023-04-14T15:38:40.524Z,100555.56
2023-04-14T15:41:13.367Z,100561.88
2023-04-14T15:43:47.691Z,100551.31
2023-04-14T15:46:20.614Z,100554.22
2023-04-14T15:48:53.763Z,100553.44
2023-04-14T15:51:52.945Z,100546.97
2023-04-14T15:54:30.948Z,100560.84
2023-04-14T15:57:04.347Z,100556.38
2023-04-14T15:59:38.448Z,100553.25
2023-04-14T16:02:11.285Z,100552.97
2023-04-14T16:04:44.409Z,100553.88
2023-04-14T16:07:17.308Z,100555.22
2023-04-14T16:09:50.281Z,100564.75
2023-04-14T16:12:25.951Z,100572.91
2023-04-14T16:15:00.108Z,100566.13
2023-04-14T16:17:33.041Z,100577.75
2023-04-14T16:20:06.820Z,100579.75
2023-04-14T16:22:39.608Z,100575.06
2023-04-14T16:25:12.370Z,100571.19
2023-04-14T16:27:45.165Z,100573.91
2023-04-14T16:30:19.411Z,100581.19
2023-04-14T16:32:52.337Z,100588.00
2023-04-14T16:35:25.746Z,100585.34
2023-04-14T16:37:59.567Z,100584.75
2023-04-14T16:40:32.547Z,100582.44
2023-04-14T16:43:06.308Z,100579.66
2023-04-14T16:45:41.717Z,100578.94
2023-04-14T16:48:14.680Z,100579.44
2023-04-14T16:50:48.755Z,100579.78
2023-04-14T16:53:22.128Z,100586.63
2023-04-14T16:56:03.784Z,100580.34
2023-04-14T16:58:37.861Z,100588.19
2023-04-14T17:01:12.117Z,100589.75
2023-04-14T17:03:45.083Z,100585.09
2023-04-14T17:06:18.279Z,100596.59
2023-04-14T17:08:50.871Z,100598.56
2023-04-14T17:11:23.705Z,100598.66
2023-04-14T17:13:56.379Z,100606.91
2023-04-14T17:16:30.508Z,100607.25
2023-04-14T17:19:04.385Z,100605.00
2023-04-14T17:21:38.464Z,100604.38
2023-04-14T17:24:11.607Z,100603.66
2023-04-14T17:26:44.808Z,100617.47
2023-04-14T17:29:17.648Z,100613.94
2023-04-14T17:31:51.876Z,100599.72
2023-04-14T17:34:25.565Z,100601.88
2023-04-14T17:36:58.794Z,100603.88
2023-04-14T17:39:32.413Z,100606.16
2023-04-14T17:42:05.288Z,100608.63
2023-04-14T17:44:38.301Z,100607.94
2023-04-14T17:47:15.515Z,100605.25
2023-04-14T17:49:48.828Z,100613.56
2023-04-14T17:52:25.917Z,100604.44
2023-04-14T17:54:58.612Z,100607.31
2023-04-14T17:57:31.335Z,100608.97
2023-04-14T18:00:05.822Z,100612.78
2023-04-14T18:02:47.084Z,100618.38
2023-04-14T18:05:19.874Z,100611.31
2023-04-14T18:07:53.237Z,100620.03
2023-04-14T18:10:26.340Z,100627.13
2023-04-14T18:12:59.599Z,100622.03
2023-04-14T18:15:32.404Z,100623.28
2023-04-14T18:18:06.609Z,100621.75
2023-04-14T18:20:39.335Z,100628.16
2023-04-14T18:23:12.664Z,100627.41
2023-04-14T18:28:21.072Z,100621.59
2023-04-14T18:30:54.771Z,100634.22
2023-04-14T18:33:29.626Z,100628.78
2023-04-14T18:36:02.403Z,100630.81
2023-04-14T18:38:35.289Z,100629.25
2023-04-14T18:41:08.320Z,100632.84
2023-04-14T18:43:41.131Z,100634.84
2023-04-14T18:46:21.540Z,100630.91
2023-04-14T18:48:55.875Z,100627.41
2023-04-14T18:51:28.645Z,100634.19
2023-04-14T18:54:01.632Z,100642.06
2023-04-14T18:56:34.640Z,100637.41
2023-04-14T18:59:07.651Z,100639.44
2023-04-14T19:01:40.545Z,100640.66
2023-04-14T19:04:14.739Z,100648.59
2023-04-14T19:06:49.107Z,100649.81
2023-04-14T19:09:23.151Z,100658.50
2023-04-14T19:11:57.158Z,100662.06
2023-04-14T19:14:32.809Z,100671.22
2023-04-14T19:17:05.734Z,100665.31
2023-04-14T19:19:39.942Z,100666.88
2023-04-14T19:22:12.777Z,100669.31
2023-04-14T19:24:45.552Z,100674.09
2023-04-14T19:27:18.825Z,100671.72
2023-04-14T19:29:51.585Z,100679.19
2023-04-14T19:32:24.688Z,100678.44
2023-04-14T19:34:59.638Z,100680.84
2023-04-14T19:37:33.746Z,100680.06
2023-04-14T19:40:09.571Z,100684.41
2023-04-14T19:42:42.720Z,100687.94
2023-04-14T19:45:15.684Z,100685.19
2023-04-14T19:47:48.496Z,100684.81
2023-04-14T19:50:24.289Z,100685.22
2023-04-14T19:52:57.147Z,100686.78
2023-04-14T19:55:29.994Z,100681.69
2023-04-14T19:58:03.692Z,100684.03
2023-04-14T20:00:40.943Z,100678.56
2023-04-14T20:03:14.226Z,100686.81
2023-04-14T20:05:51.448Z,100680.91
2023-04-14T20:08:25.267Z,100686.00
2023-04-14T20:10:58.073Z,100686.81
2023-04-14T20:13:34.762Z,100689.19
2023-04-14T20:16:07.754Z,100684.44
2023-04-14T20:18:40.702Z,100688.38
2023-04-14T20:21:14.834Z,100684.47
2023-04-14T20:23:48.096Z,100680.53
2023-04-14T20:26:21.455Z,100668.34
2023-04-14T20:28:54.472Z,100684.88
2023-04-14T20:31:27.149Z,100676.59
2023-04-14T20:34:00.212Z,100677.78
2023-04-14T20:36:35.767Z,100682.09
2023-04-14T20:39:08.585Z,100680.13
2023-04-14T20:41:42.095Z,100684.44
2023-04-14T20:44:14.997Z,100675.41
2023-04-14T20:46:49.275Z,100677.75
2023-04-14T20:49:22.375Z,100673.03
2023-04-14T20:51:58.300Z,100670.25
2023-04-14T20:54:31.318Z,100667.91
2023-04-14T20:57:05.522Z,100672.22
2023-04-14T20:59:38.313Z,100671.41
2023-04-14T21:02:11.493Z,100673.41
2023-04-14T21:04:44.380Z,100674.56
2023-04-14T21:07:18.496Z,100674.16
2023-04-14T21:09:51.264Z,100669.44
2023-04-14T21:12:24.104Z,100665.91
2023-04-14T21:15:41.411Z,100674.97
2023-04-14T21:17:51.350Z,100668.22
2023-04-14T21:20:24.375Z,100669.41
2023-04-14T21:22:59.525Z,100667.44
2023-04-14T21:25:34.411Z,100666.66
2023-04-14T21:28:08.111Z,100670.22
2023-04-14T21:30:41.708Z,100669.03
2023-04-14T21:33:14.610Z,100670.97
2023-04-14T21:35:47.485Z,100688.28
2023-04-14T21:38:21.834Z,100681.56
2023-04-14T21:40:54.593Z,100682.75
2023-04-14T21:43:27.488Z,100675.63
2023-04-14T21:46:00.209Z,100687.41
2023-04-14T21:48:33.115Z,100677.59
2023-04-14T21:51:06.063Z,100678.78
2023-04-14T21:53:39.926Z,100680.75
2023-04-14T21:56:14.480Z,100685.03
2023-04-14T21:58:47.217Z,100680.28
2023-04-14T22:01:20.084Z,100685.03
2023-04-14T22:03:53.783Z,100687.75
2023-04-14T22:06:29.656Z,100683.38
2023-04-14T22:09:04.161Z,100683.81
2023-04-14T22:11:37.642Z,100686.50
2023-04-14T22:14:10.478Z,100685.34
2023-04-14T22:16:43.334Z,100681.78
2023-04-14T22:19:16.662Z,100684.53
2023-04-14T22:21:49.880Z,100683.28
2023-04-14T22:24:24.197Z,100682.44
2023-04-14T22:26:57.327Z,100687.59
2023-04-14T22:29:30.056Z,100686.41
2023-04-14T22:32:02.872Z,100691.09
2023-04-14T22:34:37.418Z,100698.16
2023-04-14T22:37:10.474Z,100694.19
2023-04-14T22:39:44.509Z,100695.78
2023-04-14T22:42:17.529Z,100695.38
2023-04-14T22:44:51.299Z,100696.13
2023-04-14T22:47:24.177Z,100692.22
2023-04-14T22:49:56.963Z,100691.00
2023-04-14T22:52:29.723Z,100689.41
2023-04-14T22:55:03.929Z,100694.84
2023-04-14T22:57:36.764Z,100692.53
2023-04-14T23:00:11.689Z,100693.28
2023-04-14T23:02:45.458Z,100694.84
2023-04-14T23:05:21.455Z,100699.88
2023-04-14T23:07:54.504Z,100699.53
2023-04-14T23:10:28.454Z,100696.00
2023-04-14T23:13:01.809Z,100696.78
2023-04-14T23:15:34.592Z,100703.38
2023-04-14T23:18:07.307Z,100702.22
2023-04-14T23:20:40.065Z,100701.41
2023-04-14T23:23:14.510Z,100706.91
2023-04-14T23:25:48.631Z,100711.19
2023-04-14T23:28:21.419Z,100711.56
2023-04-14T23:30:54.186Z,100712.00
2023-04-14T23:33:26.870Z,100713.56
2023-04-14T23:35:59.740Z,100711.59
2023-04-14T23:38:33.254Z,100710.41
2023-04-14T23:41:07.467Z,100717.44
2023-04-14T23:43:40.181Z,100722.97
2023-04-14T23:46:13.237Z,100722.91
2023-04-14T23:48:46.017Z,100719.78
2023-04-14T23:51:22.865Z,100717.44
2023-04-14T23:53:56.347Z,100713.50
2023-04-14T23:56:31.581Z,100718.59
2023-04-14T23:59:04.429Z,100720.50
